createdAt,value
2018-02-09T00:01:21.372Z,10.27
2018-02-09T00:03:49.954Z,10.20
2018-02-09T00:06:17.556Z,10.17
2018-02-09T00:08:45.130Z,10.16
2018-02-09T00:11:12.763Z,10.14
2018-02-09T00:13:40.376Z,10.12
2018-02-09T00:16:07.955Z,10.10
2018-02-09T00:18:35.836Z,10.09
2018-02-09T00:21:03.426Z,10.10
2018-02-09T00:23:31.040Z,10.07
2018-02-09T00:25:58.681Z,10.07
2018-02-09T00:28:26.248Z,10.08
2018-02-09T00:30:53.824Z,10.07
2018-02-09T00:33:21.476Z,10.03
2018-02-09T00:35:49.118Z,9.94
2018-02-09T00:38:16.720Z,9.83
2018-02-09T00:40:44.320Z,9.68
2018-02-09T00:43:12.402Z,9.54
2018-02-09T00:45:39.986Z,9.43
2018-02-09T00:48:07.697Z,9.38
2018-02-09T00:50:38.867Z,9.28
2018-02-09T00:53:06.424Z,9.21
2018-02-09T00:55:34.240Z,9.06
2018-02-09T00:58:01.797Z,8.97
2018-02-09T01:00:29.398Z,8.85
2018-02-09T01:02:59.783Z,8.76
2018-02-09T01:05:27.449Z,8.69
2018-02-09T01:07:55.058Z,8.60
2018-02-09T01:10:22.747Z,8.56
2018-02-09T01:12:50.398Z,8.57
2018-02-09T01:15:17.965Z,8.60
2018-02-09T01:17:45.589Z,8.64
2018-02-09T01:20:13.157Z,8.67
2018-02-09T01:22:40.795Z,8.68
2018-02-09T01:25:08.428Z,8.67
2018-02-09T01:27:36.065Z,8.67
2018-02-09T01:30:03.694Z,8.60
2018-02-09T01:32:31.344Z,8.51
2018-02-09T01:34:58.917Z,8.44
2018-02-09T01:37:26.505Z,8.39
2018-02-09T01:39:54.126Z,8.25
2018-02-09T01:42:22.595Z,8.09
2018-02-09T01:47:17.271Z,7.88
2018-02-09T01:49:44.895Z,7.84
2018-02-09T01:52:12.451Z,7.81
2018-02-09T01:54:40.060Z,7.77
2018-02-09T01:57:07.657Z,7.70
2018-02-09T01:59:35.222Z,7.66
2018-02-09T02:02:02.837Z,7.48
2018-02-09T02:04:30.428Z,7.40
2018-02-09T02:06:58.013Z,7.30
2018-02-09T02:09:25.901Z,7.21
2018-02-09T02:11:53.477Z,7.11
2018-02-09T02:14:21.053Z,7.03
2018-02-09T02:16:48.697Z,6.99
2018-02-09T02:19:16.295Z,6.94
2018-02-09T02:21:43.906Z,6.94
2018-02-09T02:24:12.080Z,7.00
2018-02-09T02:26:39.644Z,7.04
2018-02-09T02:29:07.248Z,7.09
2018-02-09T02:31:34.857Z,7.13
2018-02-09T02:34:02.445Z,7.16
2018-02-09T02:36:30.026Z,7.21
2018-02-09T02:38:57.706Z,7.23
2018-02-09T02:41:25.259Z,7.24
2018-02-09T02:43:52.849Z,7.29
2018-02-09T02:46:21.160Z,7.35
2018-02-09T02:48:48.719Z,7.41
2018-02-09T02:51:16.276Z,7.50
2018-02-09T02:53:43.920Z,7.61
2018-02-09T02:56:11.489Z,7.70
2018-02-09T02:58:39.087Z,7.77
2018-02-09T03:01:06.711Z,7.81
2018-02-09T03:03:34.301Z,7.84
2018-02-09T03:06:01.938Z,7.86
2018-02-09T03:08:29.550Z,7.88
2018-02-09T03:10:57.112Z,7.87
2018-02-09T03:13:24.666Z,7.90
2018-02-09T03:15:52.305Z,7.95
2018-02-09T03:18:19.864Z,7.96
2018-02-09T03:20:47.437Z,7.99
2018-02-09T03:23:15.268Z,7.98
2018-02-09T03:25:42.899Z,7.94
2018-02-09T03:28:10.496Z,7.87
2018-02-09T03:30:38.112Z,7.76
2018-02-09T03:33:05.691Z,7.64
2018-02-09T03:35:33.324Z,7.49
2018-02-09T03:38:00.931Z,7.37
2018-02-09T03:40:28.506Z,7.24
2018-02-09T03:42:56.084Z,7.08
2018-02-09T03:45:23.698Z,6.89
2018-02-09T03:47:51.605Z,6.80
2018-02-09T03:50:19.204Z,6.71
2018-02-09T03:52:46.807Z,6.67
2018-02-09T03:55:14.429Z,6.61
2018-02-09T03:57:41.975Z,6.53
2018-02-09T04:00:09.827Z,6.49
2018-02-09T04:02:37.468Z,6.42
2018-02-09T04:05:05.054Z,6.35
2018-02-09T04:07:32.687Z,6.30
2018-02-09T04:10:00.250Z,6.20
2018-02-09T04:12:28.314Z,6.15
2018-02-09T04:14:55.944Z,6.11
2018-02-09T04:17:23.502Z,6.05
2018-02-09T04:19:51.060Z,6.01
2018-02-09T04:22:18.741Z,5.98
2018-02-09T04:24:46.306Z,5.99
2018-02-09T04:27:13.968Z,5.97
2018-02-09T04:29:41.645Z,5.98
2018-02-09T04:32:09.199Z,5.98
2018-02-09T04:34:36.773Z,6.02
2018-02-09T04:37:05.173Z,6.10
2018-02-09T04:39:32.757Z,6.16
2018-02-09T04:42:00.437Z,6.18
2018-02-09T04:44:28.339Z,6.12
2018-02-09T04:46:55.903Z,6.13
2018-02-09T04:49:23.511Z,6.09
2018-02-09T04:51:51.165Z,6.08
2018-02-09T04:54:18.720Z,6.06
2018-02-09T04:56:46.300Z,6.08
2018-02-09T04:59:13.925Z,6.05
2018-02-09T05:01:41.530Z,6.01
2018-02-09T05:04:09.110Z,5.96
2018-02-09T05:06:37.392Z,5.93
2018-02-09T05:09:05.099Z,5.84
2018-02-09T05:11:32.677Z,5.84
2018-02-09T05:14:00.299Z,5.83
2018-02-09T05:16:27.852Z,5.85
2018-02-09T05:18:55.431Z,5.85
2018-02-09T05:21:23.134Z,5.88
2018-02-09T05:23:50.700Z,5.96
2018-02-09T05:26:18.267Z,6.06
2018-02-09T05:28:45.884Z,6.17
2018-02-09T05:31:13.682Z,6.19
2018-02-09T05:33:41.260Z,6.22
2018-02-09T05:36:08.898Z,6.20
2018-02-09T05:38:36.464Z,6.26
2018-02-09T05:41:04.040Z,6.29
2018-02-09T05:43:31.686Z,6.49
2018-02-09T05:46:00.340Z,6.99
2018-02-09T05:48:27.942Z,7.55
2018-02-09T05:50:56.021Z,7.94
2018-02-09T05:53:23.730Z,8.38
2018-02-09T05:55:51.324Z,8.90
2018-02-09T05:58:19.008Z,9.31
2018-02-09T06:00:46.584Z,9.61
2018-02-09T06:03:14.149Z,9.83
2018-02-09T06:05:41.786Z,10.09
2018-02-09T06:08:09.435Z,10.60
2018-02-09T06:10:37.027Z,11.09
2018-02-09T06:13:04.818Z,11.59
2018-02-09T06:15:32.765Z,12.17
2018-02-09T06:18:00.423Z,12.84
2018-02-09T06:20:28.126Z,13.29
2018-02-09T06:22:55.712Z,13.56
2018-02-09T06:25:24.810Z,14.08
2018-02-09T06:27:52.502Z,14.46
2018-02-09T06:30:20.313Z,14.79
2018-02-09T06:32:48.114Z,14.68
2018-02-09T06:35:17.758Z,14.98
2018-02-09T06:37:45.431Z,14.89
2018-02-09T06:40:13.198Z,14.84
2018-02-09T06:42:40.971Z,14.91
2018-02-09T06:45:09.483Z,14.92
2018-02-09T06:47:37.129Z,14.89
2018-02-09T06:50:04.761Z,14.65
2018-02-09T06:52:32.459Z,14.70
2018-02-09T06:55:00.035Z,14.82
2018-02-09T06:57:27.907Z,15.00
2018-02-09T06:59:57.765Z,15.14
2018-02-09T07:02:25.332Z,15.09
2018-02-09T07:04:52.964Z,14.86
2018-02-09T07:07:20.531Z,14.58
2018-02-09T07:09:48.120Z,14.41
2018-02-09T07:12:15.788Z,14.47
2018-02-09T07:14:43.429Z,14.60
2018-02-09T07:17:11.077Z,14.38
2018-02-09T07:19:38.806Z,14.69
2018-02-09T07:22:06.627Z,14.66
2018-02-09T07:24:34.294Z,14.82
2018-02-09T07:27:02.429Z,14.91
2018-02-09T07:29:30.013Z,15.13
2018-02-09T07:31:57.601Z,15.49
2018-02-09T07:34:25.365Z,15.49
2018-02-09T07:36:52.941Z,15.51
2018-02-09T07:39:20.532Z,15.88
2018-02-09T07:41:48.222Z,16.11
2018-02-09T07:44:15.846Z,15.67
2018-02-09T07:46:44.180Z,16.09
2018-02-09T07:49:11.816Z,15.82
2018-02-09T07:51:39.497Z,15.21
2018-02-09T07:54:07.260Z,14.89
2018-02-09T07:56:34.887Z,14.70
2018-02-09T07:59:02.451Z,14.30
2018-02-09T08:01:30.018Z,14.56
2018-02-09T08:03:57.663Z,14.98
2018-02-09T08:06:25.336Z,14.90
2018-02-09T08:08:52.917Z,14.40
2018-02-09T08:11:20.534Z,14.12
2018-02-09T08:13:48.157Z,14.18
2018-02-09T08:16:15.721Z,14.59
2018-02-09T08:18:43.377Z,14.60
2018-02-09T08:21:11.380Z,14.89
2018-02-09T08:23:39.022Z,15.08
2018-02-09T08:26:06.680Z,15.41
2018-02-09T08:28:34.248Z,15.28
2018-02-09T08:31:01.896Z,15.78
2018-02-09T08:33:29.657Z,15.99
2018-02-09T08:35:57.233Z,16.30
2018-02-09T08:38:24.874Z,16.55
2018-02-09T08:40:52.490Z,16.59
2018-02-09T08:43:20.057Z,16.47
2018-02-09T08:45:47.993Z,16.92
2018-02-09T08:48:15.888Z,16.91
2018-02-09T08:50:43.464Z,17.11
2018-02-09T08:53:11.038Z,17.54
2018-02-09T08:55:38.841Z,17.81
2018-02-09T08:58:06.442Z,17.76
2018-02-09T09:00:34.008Z,17.89
2018-02-09T09:03:01.658Z,18.02
2018-02-09T09:05:29.294Z,17.83
2018-02-09T09:07:56.880Z,17.83
2018-02-09T09:10:24.512Z,17.33
2018-02-09T09:12:52.108Z,17.70
2018-02-09T09:15:19.674Z,17.52
2018-02-09T09:17:47.289Z,17.35
2018-02-09T09:20:14.868Z,17.76
2018-02-09T09:22:42.431Z,17.90
2018-02-09T09:25:10.065Z,17.98
2018-02-09T09:27:37.637Z,18.11
2018-02-09T09:30:05.256Z,18.05
2018-02-09T09:32:32.883Z,18.44
2018-02-09T09:35:00.486Z,18.99
2018-02-09T09:37:28.901Z,19.28
2018-02-09T09:39:56.532Z,19.13
2018-02-09T09:42:24.125Z,19.76
2018-02-09T09:44:51.738Z,20.31
2018-02-09T09:47:19.676Z,20.58
2018-02-09T09:49:47.265Z,20.53
2018-02-09T09:52:14.909Z,20.38
2018-02-09T09:54:42.552Z,20.79
2018-02-09T09:57:10.207Z,20.93
2018-02-09T09:59:37.806Z,20.59
2018-02-09T10:02:05.487Z,20.51
2018-02-09T10:04:33.078Z,20.68
2018-02-09T10:07:00.714Z,21.01
2018-02-09T10:09:28.353Z,20.66
2018-02-09T10:11:55.942Z,20.62
2018-02-09T10:14:24.060Z,20.32
2018-02-09T10:16:51.750Z,19.22
2018-02-09T10:19:19.321Z,19.49
2018-02-09T10:21:46.899Z,19.83
2018-02-09T10:24:14.591Z,19.60
2018-02-09T10:26:42.229Z,19.56
2018-02-09T10:29:09.813Z,19.87
2018-02-09T10:31:37.437Z,19.03
2018-02-09T10:34:05.011Z,19.34
2018-02-09T10:36:32.615Z,19.44
2018-02-09T10:39:00.281Z,19.73
2018-02-09T10:41:27.927Z,19.82
2018-02-09T10:43:55.531Z,20.29
2018-02-09T10:46:23.161Z,20.51
2018-02-09T10:48:50.802Z,20.31
2018-02-09T10:51:18.369Z,20.21
2018-02-09T10:53:46.219Z,19.85
2018-02-09T10:56:13.859Z,19.88
2018-02-09T10:58:41.566Z,19.71
2018-02-09T11:01:09.240Z,19.70
2018-02-09T11:03:36.804Z,19.61
2018-02-09T11:06:04.403Z,19.42
2018-02-09T11:08:32.069Z,19.66
2018-02-09T11:10:59.729Z,19.84
2018-02-09T11:13:32.951Z,20.28
2018-02-09T11:16:00.527Z,20.51
2018-02-09T11:18:28.107Z,20.33
2018-02-09T11:20:55.790Z,20.34
2018-02-09T11:23:23.375Z,20.62
2018-02-09T11:25:50.936Z,20.12
2018-02-09T11:28:18.557Z,20.15
2018-02-09T11:30:46.209Z,20.42
2018-02-09T11:33:13.813Z,20.92
2018-02-09T11:35:41.442Z,20.61
2018-02-09T11:38:09.091Z,20.85
2018-02-09T11:40:36.650Z,20.95
2018-02-09T11:43:04.293Z,21.77
2018-02-09T11:45:31.878Z,22.16
2018-02-09T11:47:59.476Z,21.71
2018-02-09T11:50:27.126Z,21.49
2018-02-09T11:52:55.447Z,21.37
2018-02-09T11:55:23.086Z,21.38
2018-02-09T11:57:50.917Z,21.12
2018-02-09T12:00:18.577Z,21.25
2018-02-09T12:02:46.153Z,20.91
2018-02-09T12:05:13.779Z,20.93
2018-02-09T12:07:41.414Z,21.20
2018-02-09T12:10:08.990Z,20.65
2018-02-09T12:12:36.601Z,20.68
2018-02-09T12:15:04.229Z,20.70
2018-02-09T12:17:31.798Z,20.32
2018-02-09T12:19:59.527Z,20.92
2018-02-09T12:22:27.951Z,21.50
2018-02-09T12:24:55.600Z,21.15
2018-02-09T12:27:25.957Z,21.32
2018-02-09T12:29:53.518Z,21.12
2018-02-09T12:32:21.108Z,21.64
2018-02-09T12:34:48.754Z,22.24
2018-02-09T12:37:16.394Z,21.69
2018-02-09T12:39:43.966Z,21.08
2018-02-09T12:42:11.659Z,21.19
2018-02-09T12:44:39.231Z,20.71
2018-02-09T12:47:06.812Z,20.63
2018-02-09T12:49:34.430Z,20.45
2018-02-09T12:52:02.016Z,19.95
2018-02-09T12:54:29.588Z,19.56
2018-02-09T12:56:57.266Z,19.71
2018-02-09T12:59:24.841Z,19.56
2018-02-09T13:01:52.494Z,18.99
2018-02-09T13:04:20.434Z,18.86
2018-02-09T13:06:48.002Z,19.12
2018-02-09T13:09:15.651Z,19.44
2018-02-09T13:11:43.256Z,19.08
2018-02-09T13:14:10.894Z,18.96
2018-02-09T13:16:38.472Z,19.34
2018-02-09T13:19:06.117Z,19.23
2018-02-09T13:21:33.749Z,19.30
2018-02-09T13:24:13.210Z,19.49
2018-02-09T13:26:40.793Z,19.53
2018-02-09T13:29:08.387Z,19.74
2018-02-09T13:31:36.013Z,19.94
2018-02-09T13:34:03.607Z,20.00
2018-02-09T13:36:42.947Z,20.80
2018-02-09T13:39:10.553Z,20.25
2018-02-09T13:41:38.267Z,20.88
2018-02-09T13:44:05.874Z,21.81
2018-02-09T13:46:33.483Z,22.82
2018-02-09T13:49:01.049Z,22.47
2018-02-09T13:51:28.881Z,22.90
2018-02-09T13:53:56.502Z,22.41
2018-02-09T13:56:24.097Z,22.08
2018-02-09T13:58:52.623Z,21.15
2018-02-09T14:01:20.201Z,20.34
2018-02-09T14:03:47.885Z,19.50
2018-02-09T14:06:15.650Z,18.70
2018-02-09T14:08:43.239Z,18.37
2018-02-09T14:11:10.805Z,17.95
2018-02-09T14:13:38.432Z,17.77
2018-02-09T14:16:06.018Z,17.56
2018-02-09T14:18:33.711Z,17.43
2018-02-09T14:21:01.475Z,17.08
2018-02-09T14:23:29.042Z,16.73
2018-02-09T14:25:58.957Z,16.62
2018-02-09T14:28:26.619Z,16.62
2018-02-09T14:30:54.216Z,16.51
2018-02-09T14:33:21.773Z,16.39
2018-02-09T14:35:49.450Z,16.30
2018-02-09T14:38:17.029Z,16.24
2018-02-09T14:40:44.829Z,16.10
2018-02-09T14:43:12.504Z,15.81
2018-02-09T14:45:40.672Z,15.62
2018-02-09T14:48:08.248Z,15.48
2018-02-09T14:50:35.951Z,15.35
2018-02-09T14:53:03.613Z,15.21
2018-02-09T14:55:31.185Z,15.12
2018-02-09T14:57:59.058Z,15.05
2018-02-09T15:00:27.551Z,14.94
2018-02-09T15:02:55.135Z,14.87
2018-02-09T15:05:23.226Z,14.78
2018-02-09T15:07:50.860Z,14.63
2018-02-09T15:10:18.437Z,14.47
2018-02-09T15:12:46.122Z,14.42
2018-02-09T15:15:13.698Z,14.34
2018-02-09T15:17:41.281Z,14.26
2018-02-09T15:20:08.916Z,14.17
2018-02-09T15:22:36.497Z,14.10
2018-02-09T15:25:04.059Z,13.98
2018-02-09T15:27:31.707Z,13.85
2018-02-09T15:29:59.282Z,13.73
2018-02-09T15:32:26.920Z,13.65
2018-02-09T15:34:55.300Z,13.59
2018-02-09T15:37:22.864Z,13.49
2018-02-09T15:39:50.440Z,13.43
2018-02-09T15:42:18.081Z,13.36
2018-02-09T15:44:45.657Z,13.29
2018-02-09T15:47:13.313Z,13.23
2018-02-09T15:49:40.965Z,13.18
2018-02-09T15:52:08.603Z,13.13
2018-02-09T15:54:36.185Z,13.09
2018-02-09T15:57:03.838Z,13.04
2018-02-09T15:59:31.416Z,12.96
2018-02-09T16:01:59.009Z,12.92
2018-02-09T16:04:26.815Z,12.89
2018-02-09T16:06:54.473Z,12.82
2018-02-09T16:09:22.055Z,12.75
2018-02-09T16:11:49.985Z,12.72
2018-02-09T16:14:17.889Z,12.70
2018-02-09T16:16:45.451Z,12.63
2018-02-09T16:19:13.092Z,12.60
2018-02-09T16:21:40.669Z,12.50
2018-02-09T16:24:08.311Z,12.45
2018-02-09T16:26:35.934Z,12.31
2018-02-09T16:29:03.526Z,12.10
2018-02-09T16:31:31.123Z,11.99
2018-02-09T16:33:58.745Z,11.79
2018-02-09T16:36:26.547Z,11.68
2018-02-09T16:38:54.125Z,11.56
2018-02-09T16:41:21.785Z,11.48
2018-02-09T16:43:49.506Z,11.36
2018-02-09T16:46:17.104Z,11.25
2018-02-09T16:48:44.818Z,11.17
2018-02-09T16:51:12.413Z,11.13
2018-02-09T16:53:39.990Z,11.02
2018-02-09T16:56:07.627Z,10.96
2018-02-09T16:58:35.221Z,10.88
2018-02-09T17:01:02.850Z,10.84
2018-02-09T17:03:30.485Z,10.83
2018-02-09T17:05:58.063Z,10.85
2018-02-09T17:08:25.764Z,10.82
2018-02-09T17:10:53.389Z,10.79
2018-02-09T17:13:20.974Z,10.76
2018-02-09T17:15:48.569Z,10.74
2018-02-09T17:18:16.238Z,10.71
2018-02-09T17:20:43.833Z,10.66
2018-02-09T17:23:11.412Z,10.63
2018-02-09T17:25:39.046Z,10.58
2018-02-09T17:28:06.766Z,10.52
2018-02-09T17:30:34.353Z,10.46
2018-02-09T17:33:02.584Z,10.45
2018-02-09T17:35:30.147Z,10.39
2018-02-09T17:37:57.788Z,10.39
2018-02-09T17:40:25.477Z,10.38
2018-02-09T17:42:53.089Z,10.30
2018-02-09T17:45:20.675Z,10.28
2018-02-09T17:47:48.373Z,10.27
2018-02-09T17:50:16.491Z,10.25
2018-02-09T17:52:44.175Z,10.25
2018-02-09T17:55:11.787Z,10.24
2018-02-09T17:57:39.421Z,10.21
2018-02-09T18:00:07.009Z,10.22
2018-02-09T18:02:34.840Z,10.22
2018-02-09T18:05:02.432Z,10.22
2018-02-09T18:07:30.065Z,10.19
2018-02-09T18:09:57.827Z,10.22
2018-02-09T18:12:25.412Z,10.23
2018-02-09T18:14:52.985Z,10.23
2018-02-09T18:17:20.689Z,10.26
2018-02-09T18:19:48.280Z,10.19
2018-02-09T18:22:15.856Z,10.26
2018-02-09T18:24:43.497Z,10.31
2018-02-09T18:27:11.071Z,10.29
2018-02-09T18:29:38.702Z,10.30
2018-02-09T18:32:06.361Z,10.25
2018-02-09T18:34:35.206Z,10.19
2018-02-09T18:37:02.796Z,10.17
2018-02-09T18:39:30.448Z,10.16
2018-02-09T18:41:58.660Z,10.20
2018-02-09T18:44:26.254Z,10.23
2018-02-09T18:46:53.936Z,10.18
2018-02-09T18:49:21.505Z,10.10
2018-02-09T18:51:49.080Z,10.04
2018-02-09T18:54:16.778Z,10.02
2018-02-09T18:56:44.360Z,10.04
2018-02-09T18:59:11.938Z,10.06
2018-02-09T19:01:39.601Z,10.00
2018-02-09T19:04:07.174Z,9.96
2018-02-09T19:06:34.835Z,9.99
2018-02-09T19:09:02.699Z,10.00
2018-02-09T19:11:30.335Z,10.01
2018-02-09T19:13:57.933Z,9.87
2018-02-09T19:16:25.573Z,9.70
2018-02-09T19:18:53.144Z,9.61
2018-02-09T19:21:20.725Z,9.43
2018-02-09T19:23:48.355Z,9.38
2018-02-09T19:26:16.545Z,9.39
2018-02-09T19:28:44.120Z,9.40
2018-02-09T19:31:11.831Z,9.41
2018-02-09T19:33:39.473Z,9.41
2018-02-09T19:36:07.040Z,9.33
2018-02-09T19:38:34.676Z,9.28
2018-02-09T19:41:02.257Z,9.24
2018-02-09T19:43:29.850Z,9.20
2018-02-09T19:45:57.471Z,9.22
2018-02-09T19:48:25.129Z,9.22
2018-02-09T19:50:52.712Z,9.26
2018-02-09T19:53:21.285Z,9.29
2018-02-09T19:55:48.861Z,9.31
2018-02-09T19:58:16.433Z,9.29
2018-02-09T20:00:44.027Z,9.25
2018-02-09T20:03:11.603Z,9.21
2018-02-09T20:05:39.178Z,9.16
2018-02-09T20:08:06.804Z,9.14
2018-02-09T20:10:34.370Z,9.07
2018-02-09T20:13:02.077Z,9.05
2018-02-09T20:15:29.723Z,9.05
2018-02-09T20:17:57.321Z,9.04
2018-02-09T20:20:24.890Z,9.04
2018-02-09T20:22:52.581Z,9.03
2018-02-09T20:25:20.184Z,9.03
2018-02-09T20:27:47.751Z,9.05
2018-02-09T20:30:15.759Z,9.09
2018-02-09T20:32:43.340Z,9.15
2018-02-09T20:35:10.897Z,9.23
2018-02-09T20:37:38.531Z,9.33
2018-02-09T20:40:06.101Z,9.41
2018-02-09T20:42:33.804Z,9.49
2018-02-09T20:45:01.391Z,9.57
2018-02-09T20:47:29.033Z,9.62
2018-02-09T20:49:56.665Z,9.64
2018-02-09T20:52:24.324Z,9.68
2018-02-09T20:54:51.913Z,9.71
2018-02-09T20:57:19.491Z,9.74
2018-02-09T20:59:49.155Z,9.80
2018-02-09T21:02:16.735Z,9.86
2018-02-09T21:04:44.323Z,9.87
2018-02-09T21:07:12.245Z,9.83
2018-02-09T21:09:39.833Z,9.54
2018-02-09T21:12:07.396Z,9.58
2018-02-09T21:14:35.193Z,9.59
2018-02-09T21:17:02.861Z,9.57
2018-02-09T21:19:30.437Z,9.48
2018-02-09T21:21:58.101Z,9.45
2018-02-09T21:24:25.731Z,9.35
2018-02-09T21:26:53.300Z,9.30
2018-02-09T21:29:21.282Z,9.25
2018-02-09T21:31:48.879Z,9.15
2018-02-09T21:34:16.453Z,9.02
2018-02-09T21:36:44.199Z,8.91
2018-02-09T21:39:11.768Z,8.78
2018-02-09T21:41:39.356Z,8.69
2018-02-09T21:44:07.191Z,8.61
2018-02-09T21:46:34.842Z,8.52
2018-02-09T21:49:02.481Z,8.48
2018-02-09T21:51:30.105Z,8.44
2018-02-09T21:53:57.820Z,8.43
2018-02-09T21:56:25.395Z,8.41
2018-02-09T21:58:53.051Z,8.38
2018-02-09T22:01:21.261Z,8.36
2018-02-09T22:03:48.830Z,8.32
2018-02-09T22:06:16.451Z,8.27
2018-02-09T22:08:44.054Z,8.24
2018-02-09T22:11:11.621Z,8.22
2018-02-09T22:13:39.260Z,8.23
2018-02-09T22:16:07.252Z,8.21
2018-02-09T22:18:34.840Z,8.18
2018-02-09T22:21:02.521Z,8.16
2018-02-09T22:23:30.118Z,8.19
2018-02-09T22:25:58.106Z,8.23
2018-02-09T22:28:26.604Z,8.26
2018-02-09T22:30:54.205Z,8.31
2018-02-09T22:33:21.781Z,8.35
2018-02-09T22:35:49.416Z,8.38
2018-02-09T22:38:17.066Z,8.39
2018-02-09T22:40:44.638Z,8.35
2018-02-09T22:43:13.002Z,8.30
2018-02-09T22:45:40.582Z,8.29
2018-02-09T22:48:08.682Z,8.28
2018-02-09T22:50:36.397Z,8.27
2018-02-09T22:53:03.983Z,8.26
2018-02-09T22:55:31.796Z,8.22
2018-02-09T22:57:59.467Z,8.22
2018-02-09T23:00:27.060Z,8.20
2018-02-09T23:02:54.666Z,8.19
2018-02-09T23:05:22.364Z,8.22
2018-02-09T23:07:49.945Z,8.22
2018-02-09T23:10:17.543Z,8.19
2018-02-09T23:12:45.182Z,8.19
2018-02-09T23:15:13.148Z,8.15
2018-02-09T23:17:40.840Z,8.14
2018-02-09T23:20:08.489Z,8.11
2018-02-09T23:22:36.137Z,8.10
2018-02-09T23:25:03.739Z,8.11
2018-02-09T23:27:31.673Z,8.08
2018-02-09T23:29:59.261Z,8.02
2018-02-09T23:32:26.885Z,7.99
2018-02-09T23:34:54.529Z,7.97
2018-02-09T23:37:22.109Z,7.96
2018-02-09T23:39:49.689Z,7.96
2018-02-09T23:42:17.373Z,7.95
2018-02-09T23:44:44.941Z,7.90
2018-02-09T23:47:12.494Z,7.89
2018-02-09T23:49:40.189Z,7.88
2018-02-09T23:52:07.829Z,7.87
2018-02-09T23:54:35.399Z,7.87
2018-02-09T23:57:03.102Z,7.84
2018-02-09T23:59:30.681Z,7.78
